Terminal Aerodrome Forecast
Issued by NWS

Home | Current Version | Previous Version | Text Only | Print | Product List | Glossary On
Versions: 1 2 3 4 5 6 7 8 9 10 11 12 13 14 15 16 17 18 19 20 21 22 23 24 25 26
000
FTUS42 KCAE 261757 AAA
TAFDNL
TAF AMD
KDNL 261757Z 2618/2718 20007KT P6SM VCSH SCT070
     FM262200 16006KT P6SM SCT060
     FM270500 VRB04KT P6SM SCT070=

USA.gov is the U.S. government's official web portal to all federal, state and local government web resources and services.